Time;durP1;ratioP1;P1;durP2;ratioP2;P2;SDS_P1;SDS_P2;PMS_P1;PMS_P2;Temp;Humidity;BMP_temperature;BMP_pressure;BME280_temperature;BME280_humidity;BME280_pressure;Samples;Min_cycle;Max_cycle;Signal;HPM_P1;HPM_P2
2021/05/19 00:01:46;;;;;;;8.93;5.50;;;;;;;7.43;99.76;100451.47;3540697;40;20061;-55
2021/05/19 00:04:13;;;;;;;7.43;4.85;;;;;;;7.48;99.91;100448.25;3540602;40;20073;-54
2021/05/19 00:06:41;;;;;;;8.80;5.78;;;;;;;7.08;100.00;100443.47;3540817;40;20062;-55
2021/05/19 00:09:10;;;;;;;9.95;6.13;;;;;;;6.87;100.00;100446.09;3540691;40;20052;-53
2021/05/19 00:11:39;;;;;;;10.80;6.40;;;;;;;6.81;100.00;100443.34;3538106;40;20100;-54
2021/05/19 00:14:07;;;;;;;11.63;6.65;;;;;;;6.76;100.00;100439.75;3540796;40;20082;-55
2021/05/19 00:16:35;;;;;;;6.93;6.00;;;;;;;6.75;100.00;100428.72;3537661;40;20058;-52
2021/05/19 00:19:03;;;;;;;8.93;6.60;;;;;;;6.80;100.00;100432.28;3542158;40;20043;-57
2021/05/19 00:21:30;;;;;;;8.35;6.25;;;;;;;6.93;100.00;100420.84;3541970;40;20099;-59
2021/05/19 00:23:57;;;;;;;12.27;7.05;;;;;;;7.32;100.00;100423.94;3542441;40;20332;-56
2021/05/19 00:26:25;;;;;;;10.15;6.63;;;;;;;7.89;100.00;100436.88;3541922;40;20053;-57
2021/05/19 00:28:54;;;;;;;9.90;6.63;;;;;;;7.74;100.00;100431.28;3542263;40;20077;-55
2021/05/19 00:31:24;;;;;;;8.60;6.00;;;;;;;7.42;100.00;100442.09;3541744;40;20118;-50
2021/05/19 00:33:51;;;;;;;7.20;5.88;;;;;;;7.82;99.76;100429.88;3542048;40;20066;-56
2021/05/19 00:36:19;;;;;;;11.43;6.43;;;;;;;7.56;99.17;100429.00;3541977;40;20098;-54
2021/05/19 00:38:46;;;;;;;10.48;6.65;;;;;;;7.61;100.00;100431.69;3542403;40;20038;-57
2021/05/19 00:41:13;;;;;;;9.55;5.70;;;;;;;7.78;98.22;100435.69;3542000;40;20343;-54
2021/05/19 00:43:41;;;;;;;9.40;5.82;;;;;;;7.75;97.24;100438.13;3542169;40;20098;-51
2021/05/19 00:46:09;;;;;;;7.80;5.65;;;;;;;7.38;99.49;100441.13;3541503;40;20145;-58
2021/05/19 00:48:36;;;;;;;10.07;5.80;;;;;;;7.00;100.00;100447.41;3538676;40;20051;-57
2021/05/19 00:51:04;;;;;;;10.93;6.47;;;;;;;6.84;100.00;100439.22;3542054;40;20050;-57
2021/05/19 00:53:32;;;;;;;7.95;6.50;;;;;;;6.78;100.00;100448.31;3542129;40;20043;-57
2021/05/19 00:56:00;;;;;;;8.13;6.60;;;;;;;6.90;100.00;100436.03;3542145;40;20320;-55
2021/05/19 00:58:28;;;;;;;10.35;7.45;;;;;;;6.70;100.00;100453.13;3542083;40;20095;-56
2021/05/19 01:00:55;;;;;;;11.27;7.35;;;;;;;6.81;100.00;100449.28;3542285;40;20105;-57
2021/05/19 01:03:22;;;;;;;9.82;7.28;;;;;;;6.61;100.00;100445.16;3541697;40;20058;-53
2021/05/19 01:05:57;;;;;;;12.45;8.15;;;;;;;6.52;100.00;100452.44;3542033;40;20079;-55
2021/05/19 01:11:12;;;;;;;10.83;7.73;;;;;;;6.78;100.00;100451.72;3541475;40;20098;-54
2021/05/19 01:13:52;;;;;;;11.38;8.57;;;;;;;6.49;100.00;100460.81;3541604;40;20276;-54
2021/05/19 01:16:22;;;;;;;11.52;8.00;;;;;;;7.11;100.00;100461.38;3541376;40;20408;-55
2021/05/19 01:18:49;;;;;;;10.50;7.45;;;;;;;7.00;100.00;100458.47;3541528;40;20047;-53
2021/05/19 01:21:18;;;;;;;10.75;7.93;;;;;;;7.61;100.00;100457.19;3541561;40;20375;-56
2021/05/19 01:23:45;;;;;;;14.30;8.68;;;;;;;7.63;100.00;100461.53;3541784;40;20492;-58
2021/05/19 01:26:13;;;;;;;12.95;8.20;;;;;;;7.30;100.00;100457.81;3541577;40;20086;-53
2021/05/19 01:28:42;;;;;;;13.15;8.23;;;;;;;7.57;100.00;100450.25;3541388;40;20529;-54
2021/05/19 01:31:11;;;;;;;15.23;9.27;;;;;;;6.79;100.00;100450.91;3541538;40;20098;-55
2021/05/19 01:33:39;;;;;;;13.25;8.63;;;;;;;6.56;100.00;100452.63;3541781;40;20332;-56
2021/05/19 01:36:07;;;;;;;12.45;9.25;;;;;;;6.46;100.00;100452.19;3541590;40;20098;-53
2021/05/19 01:38:35;;;;;;;15.30;9.63;;;;;;;6.50;100.00;100459.13;3541686;40;20058;-54
2021/05/19 01:41:03;;;;;;;10.80;8.18;;;;;;;7.12;100.00;100463.13;3541925;40;20307;-51
2021/05/19 01:43:35;;;;;;;11.48;9.23;;;;;;;7.02;100.00;100463.59;3541542;40;20374;-56
2021/05/19 01:46:03;;;;;;;15.15;9.10;;;;;;;6.76;100.00;100466.06;3541543;40;20050;-53
2021/05/19 01:48:33;;;;;;;11.68;8.95;;;;;;;6.65;100.00;100462.25;3541027;40;20050;-57
2021/05/19 01:51:02;;;;;;;12.82;8.68;;;;;;;6.91;100.00;100470.84;3542266;40;20086;-54
2021/05/19 01:53:31;;;;;;;13.57;8.77;;;;;;;7.25;100.00;100478.00;3542050;40;20324;-57
2021/05/19 01:56:00;;;;;;;10.88;8.10;;;;;;;7.14;100.00;100471.69;3542077;40;20061;-57
2021/05/19 01:58:27;;;;;;;11.63;7.85;;;;;;;7.73;100.00;100472.91;3541924;40;20094;-57
2021/05/19 02:00:55;;;;;;;9.98;8.02;;;;;;;7.28;100.00;100474.72;3541815;40;20054;-53
2021/05/19 02:03:22;;;;;;;8.88;7.78;;;;;;;7.14;100.00;100470.00;3541863;40;20073;-57
2021/05/19 02:05:49;;;;;;;12.25;7.93;;;;;;;7.08;100.00;100466.38;3541541;40;20086;-52
2021/05/19 02:08:16;;;;;;;12.10;8.30;;;;;;;7.14;100.00;100471.69;3541567;40;20090;-57
2021/05/19 02:10:44;;;;;;;11.10;7.60;;;;;;;7.35;100.00;100475.00;3541447;40;20082;-52
2021/05/19 02:13:12;;;;;;;10.55;8.20;;;;;;;7.46;100.00;100479.59;3541582;40;20070;-56
2021/05/19 02:15:40;;;;;;;9.77;7.43;;;;;;;7.43;100.00;100480.34;3541322;40;20069;-55
2021/05/19 02:18:07;;;;;;;10.45;7.43;;;;;;;7.67;99.73;100472.66;3541192;40;20122;-56
2021/05/19 02:20:34;;;;;;;9.38;6.82;;;;;;;7.53;100.00;100476.44;3541354;40;20298;-54
2021/05/19 02:23:01;;;;;;;11.25;8.05;;;;;;;7.32;100.00;100485.06;3541391;40;20114;-51
2021/05/19 02:25:28;;;;;;;9.98;7.72;;;;;;;7.30;100.00;100488.38;3540865;40;20053;-59
2021/05/19 02:27:55;;;;;;;10.43;6.93;;;;;;;7.52;100.00;100483.22;3541256;40;20439;-55
2021/05/19 02:30:24;;;;;;;10.13;7.15;;;;;;;7.88;99.68;100487.84;3541504;40;20046;-55
2021/05/19 02:32:52;;;;;;;10.60;7.03;;;;;;;8.11;98.30;100483.47;3540955;40;20066;-56
2021/05/19 02:35:19;;;;;;;11.05;7.40;;;;;;;7.62;100.00;100480.16;3540540;40;20046;-58
2021/05/19 02:37:46;;;;;;;9.50;7.05;;;;;;;7.65;100.00;100466.66;3541167;40;20046;-54
2021/05/19 02:40:16;;;;;;;11.75;7.85;;;;;;;7.71;100.00;100476.19;3540879;40;20484;-53
2021/05/19 02:42:44;;;;;;;9.50;6.68;;;;;;;7.89;99.41;100477.66;3541224;40;20077;-57
2021/05/19 02:45:12;;;;;;;8.82;6.43;;;;;;;7.82;100.00;100474.88;3537483;40;20457;-57
2021/05/19 02:47:46;;;;;;;11.20;6.68;;;;;;;7.95;98.75;100478.69;3539828;40;20050;-52
2021/05/19 02:50:23;;;;;;;9.57;6.53;;;;;;;8.05;100.00;100481.59;3539927;40;20331;-58
2021/05/19 02:52:51;;;;;;;8.48;6.65;;;;;;;8.58;96.62;100490.09;3541290;40;20105;-56
2021/05/19 02:55:20;;;;;;;8.50;6.85;;;;;;;8.64;96.44;100497.97;3538715;40;20480;-57
2021/05/19 02:57:48;;;;;;;8.65;7.05;;;;;;;8.28;97.90;100490.00;3539903;40;20078;-55
2021/05/19 03:00:17;;;;;;;9.05;6.05;;;;;;;8.62;97.15;100493.63;3538730;40;20050;-57
2021/05/19 03:02:47;;;;;;;10.15;6.45;;;;;;;8.66;97.21;100496.31;3541004;40;20140;-59
2021/05/19 03:05:14;;;;;;;8.45;6.40;;;;;;;8.36;97.07;100491.09;3539393;40;20469;-54
2021/05/19 03:07:44;;;;;;;8.85;7.43;;;;;;;8.30;98.12;100492.59;3540529;40;20050;-58
2021/05/19 03:10:13;;;;;;;8.98;6.60;;;;;;;8.14;99.34;100493.78;3539877;40;20057;-60
2021/05/19 03:12:43;;;;;;;10.27;7.32;;;;;;;8.16;100.00;100497.25;3540834;40;20062;-61
2021/05/19 03:15:14;;;;;;;9.85;7.47;;;;;;;8.16;100.00;100495.56;3540764;40;20059;-61
2021/05/19 03:17:43;;;;;;;10.10;7.22;;;;;;;8.64;98.00;100507.28;3540142;40;20061;-52
2021/05/19 03:20:12;;;;;;;10.50;7.53;;;;;;;8.56;97.91;100503.66;3540315;40;20085;-57
2021/05/19 03:22:41;;;;;;;9.10;7.55;;;;;;;8.98;95.91;100506.59;3541149;40;20124;-56
2021/05/19 03:25:10;;;;;;;10.25;6.90;;;;;;;8.87;95.87;100511.41;3538534;40;20147;-54
2021/05/19 03:27:42;;;;;;;9.07;6.97;;;;;;;8.66;97.73;100511.63;3537227;40;20083;-59
2021/05/19 03:30:13;;;;;;;9.60;7.28;;;;;;;8.72;96.88;100505.81;3538362;40;20061;-58
2021/05/19 03:32:42;;;;;;;12.05;7.20;;;;;;;8.75;97.52;100518.69;3538996;40;20042;-58
2021/05/19 03:35:11;;;;;;;10.95;7.70;;;;;;;8.75;97.67;100522.94;3539129;40;20308;-58
2021/05/19 03:37:39;;;;;;;11.02;8.00;;;;;;;8.79;97.72;100522.22;3539726;40;20039;-53
2021/05/19 03:40:10;;;;;;;12.35;7.57;;;;;;;8.78;97.00;100523.91;3538551;40;20062;-56
2021/05/19 03:42:38;;;;;;;9.25;7.05;;;;;;;8.93;97.01;100524.34;3538096;40;20062;-55
2021/05/19 03:45:10;;;;;;;9.80;7.07;;;;;;;8.86;96.22;100519.88;3537707;40;20058;-59
2021/05/19 03:47:38;;;;;;;8.45;7.25;;;;;;;8.94;96.31;100525.22;3537937;40;20054;-57
2021/05/19 03:50:08;;;;;;;11.32;8.23;;;;;;;8.54;98.06;100521.44;3539353;40;20043;-55
2021/05/19 03:52:36;;;;;;;11.18;7.45;;;;;;;8.83;97.34;100524.03;3538487;40;20059;-61
2021/05/19 03:55:06;;;;;;;9.35;7.03;;;;;;;9.16;95.63;100524.16;3541454;40;20142;-57
2021/05/19 03:57:34;;;;;;;9.50;7.28;;;;;;;9.01;96.56;100527.09;3540771;40;20106;-60
2021/05/19 04:00:05;;;;;;;9.35;6.90;;;;;;;9.07;95.82;100531.56;3541494;40;20077;-61
2021/05/19 04:02:33;;;;;;;10.73;6.88;;;;;;;9.22;94.80;100531.97;3540714;40;20053;-59
2021/05/19 04:05:00;;;;;;;11.63;7.15;;;;;;;9.10;95.31;100527.38;3541768;40;20046;-58
2021/05/19 04:07:28;;;;;;;9.98;7.10;;;;;;;9.47;94.37;100530.97;3539747;40;20051;-58
2021/05/19 04:09:56;;;;;;;9.88;7.05;;;;;;;9.28;95.00;100536.41;3539995;40;20051;-51
2021/05/19 04:12:24;;;;;;;9.40;6.95;;;;;;;9.36;94.95;100533.22;3541556;40;20054;-53
2021/05/19 04:14:52;;;;;;;7.40;6.65;;;;;;;9.29;94.99;100530.44;3540733;40;20331;-51
2021/05/19 04:17:19;;;;;;;11.98;7.70;;;;;;;9.24;96.26;100527.75;3541037;40;20356;-59
2021/05/19 04:19:47;;;;;;;9.68;7.80;;;;;;;9.54;94.58;100535.44;3542397;40;20053;-58
2021/05/19 04:22:15;;;;;;;9.73;7.47;;;;;;;9.44;95.66;100534.31;3540576;40;20150;-59
2021/05/19 04:24:44;;;;;;;12.48;7.13;;;;;;;9.58;94.29;100544.06;3541885;40;20609;-59
2021/05/19 04:27:13;;;;;;;9.45;7.38;;;;;;;9.77;93.60;100546.28;3540842;40;20105;-60
2021/05/19 04:29:42;;;;;;;9.90;7.15;;;;;;;10.02;92.98;100549.47;3540081;40;20171;-59
2021/05/19 04:32:10;;;;;;;8.93;6.90;;;;;;;9.97;92.23;100549.34;3538818;40;20073;-59
2021/05/19 04:34:39;;;;;;;9.43;7.32;;;;;;;9.88;93.33;100557.66;3539866;40;20053;-61
2021/05/19 04:37:07;;;;;;;9.15;7.50;;;;;;;9.89;91.98;100561.06;3536787;40;20066;-57
2021/05/19 04:39:38;;;;;;;9.48;7.07;;;;;;;9.76;94.34;100559.03;3538927;40;20058;-59
2021/05/19 04:42:07;;;;;;;9.80;7.70;;;;;;;9.58;94.85;100559.41;3540480;40;20450;-59
2021/05/19 04:44:37;;;;;;;11.75;7.80;;;;;;;10.09;92.70;100566.72;3537646;40;20061;-57
2021/05/19 04:47:05;;;;;;;9.93;7.95;;;;;;;9.90;94.25;100567.94;3540409;40;20178;-58
2021/05/19 04:49:36;;;;;;;8.50;7.28;;;;;;;10.11;93.18;100572.72;3542453;40;20069;-56
2021/05/19 04:52:10;;;;;;;11.10;7.25;;;;;;;10.16;93.22;100566.88;3539151;40;20393;-58
2021/05/19 04:54:37;;;;;;;10.43;7.80;;;;;;;10.50;92.40;100569.47;3537863;40;20170;-60
2021/05/19 04:57:06;;;;;;;8.90;8.00;;;;;;;10.95;89.86;100561.94;3537944;40;20470;-55
2021/05/19 04:59:34;;;;;;;9.90;7.93;;;;;;;11.02;89.55;100568.97;3538587;40;20057;-50
2021/05/19 05:02:05;;;;;;;9.20;7.90;;;;;;;10.91;89.68;100563.59;3539139;40;20134;-55
2021/05/19 05:04:33;;;;;;;8.50;7.18;;;;;;;11.30;88.98;100575.53;3537225;40;20065;-57
2021/05/19 05:07:01;;;;;;;11.18;7.68;;;;;;;11.20;88.68;100565.94;3538603;40;20631;-52
2021/05/19 05:09:29;;;;;;;9.32;7.60;;;;;;;11.50;87.38;100568.25;3539670;40;20055;-56
2021/05/19 05:11:57;;;;;;;10.65;6.97;;;;;;;11.28;87.79;100568.63;3541734;40;20055;-59
2021/05/19 05:14:25;;;;;;;9.68;8.02;;;;;;;11.49;86.88;100574.22;3538879;40;20053;-57
2021/05/19 05:16:53;;;;;;;11.30;7.95;;;;;;;11.42;87.34;100575.78;3539548;40;20137;-56
2021/05/19 05:19:20;;;;;;;9.02;7.95;;;;;;;11.47;87.42;100576.75;3587527;22;20078;-50
2021/05/19 05:21:47;;;;;;;10.30;7.63;;;;;;;11.48;87.17;100583.59;3560474;40;20057;-54
2021/05/19 05:24:15;;;;;;;9.20;7.80;;;;;;;11.39;87.37;100585.13;3553924;40;20047;-49
2021/05/19 05:26:42;;;;;;;10.23;8.35;;;;;;;11.61;86.86;100582.16;3559620;40;20044;-52
2021/05/19 05:29:09;;;;;;;10.18;8.48;;;;;;;11.37;87.30;100594.47;3556257;40;20305;-53
2021/05/19 05:31:36;;;;;;;10.65;8.68;;;;;;;11.44;86.58;100596.31;3544574;40;20301;-51
2021/05/19 05:34:03;;;;;;;9.43;8.23;;;;;;;11.45;87.63;100596.34;3557335;40;20056;-56
2021/05/19 05:36:30;;;;;;;9.68;8.68;;;;;;;11.40;88.25;100592.81;3560303;40;20049;-52
2021/05/19 05:38:57;;;;;;;14.25;9.25;;;;;;;11.62;87.46;100590.72;3561222;40;20396;-50
2021/05/19 05:41:25;;;;;;;9.65;8.23;;;;;;;11.88;86.14;100593.81;3558908;40;20051;-51
2021/05/19 05:43:52;;;;;;;11.25;8.20;;;;;;;11.90;85.54;100595.56;3549057;40;20064;-53
2021/05/19 05:46:19;;;;;;;9.52;7.90;;;;;;;12.32;85.50;100604.88;3554923;40;20115;-50
2021/05/19 05:48:46;;;;;;;10.63;9.05;;;;;;;12.01;84.22;100597.44;3561762;40;20041;-51
2021/05/19 05:51:13;;;;;;;9.65;8.13;;;;;;;12.07;84.81;100602.72;3557253;40;20115;-53
2021/05/19 05:53:40;;;;;;;11.20;8.23;;;;;;;12.39;84.86;100611.00;3562310;40;20396;-56
2021/05/19 05:56:07;;;;;;;9.70;8.02;;;;;;;12.66;81.89;100611.44;3557263;40;20068;-55
2021/05/19 05:58:34;;;;;;;10.82;7.95;;;;;;;12.67;81.35;100609.72;3561743;40;20075;-52
2021/05/19 06:01:02;;;;;;;12.15;8.38;;;;;;;12.68;82.16;100614.03;3559985;40;20037;-48
2021/05/19 06:03:29;;;;;;;8.90;7.85;;;;;;;12.63;82.22;100616.53;3559532;40;20051;-52
2021/05/19 06:05:56;;;;;;;11.07;8.77;;;;;;;12.87;81.78;100617.75;3561142;40;20467;-49
2021/05/19 06:08:23;;;;;;;10.77;8.32;;;;;;;12.89;80.23;100622.03;3557503;40;20601;-54
2021/05/19 06:10:50;;;;;;;9.35;8.30;;;;;;;12.73;81.84;100620.97;3561835;40;20484;-54
2021/05/19 06:13:17;;;;;;;10.95;8.23;;;;;;;12.40;84.00;100617.84;3556353;40;20138;-53
2021/05/19 06:15:44;;;;;;;10.63;8.05;;;;;;;12.40;83.91;100628.97;3561334;40;20084;-55
2021/05/19 06:18:11;;;;;;;10.38;8.00;;;;;;;12.71;82.07;100627.78;3556804;40;20059;-52
2021/05/19 06:20:39;;;;;;;12.55;8.90;;;;;;;12.72;81.71;100628.66;3561783;40;20061;-52
2021/05/19 06:23:07;;;;;;;11.90;8.98;;;;;;;12.89;81.74;100632.31;3548016;40;20057;-53
2021/05/19 06:25:34;;;;;;;11.43;9.23;;;;;;;12.90;81.55;100636.66;3556544;40;20450;-56
2021/05/19 06:28:01;;;;;;;10.38;8.48;;;;;;;12.67;80.96;100635.44;3558801;40;20049;-55
2021/05/19 06:30:28;;;;;;;12.98;10.20;;;;;;;12.65;81.47;100626.81;3559065;40;20059;-52
2021/05/19 06:32:55;;;;;;;12.52;9.48;;;;;;;13.09;80.06;100624.94;3559859;40;20081;-52
2021/05/19 06:35:22;;;;;;;11.27;8.98;;;;;;;13.27;79.91;100628.63;3557297;40;20124;-50
2021/05/19 06:37:49;;;;;;;9.82;8.65;;;;;;;13.21;78.66;100622.50;3561333;40;20339;-53
2021/05/19 06:40:16;;;;;;;11.90;9.30;;;;;;;13.50;78.43;100629.81;3555743;40;20070;-53
2021/05/19 06:42:43;;;;;;;11.30;8.75;;;;;;;13.66;78.90;100628.28;3561647;40;20057;-52
2021/05/19 06:45:11;;;;;;;11.52;8.85;;;;;;;13.97;77.19;100632.94;3556310;40;20488;-54
2021/05/19 06:47:38;;;;;;;12.70;9.35;;;;;;;14.00;76.16;100630.41;3561482;40;20093;-55
2021/05/19 06:50:06;;;;;;;11.23;8.82;;;;;;;14.17;74.38;100635.69;3540803;40;20068;-50
2021/05/19 06:52:33;;;;;;;12.70;9.13;;;;;;;14.22;75.21;100635.75;3561110;40;20842;-51
2021/05/19 06:55:01;;;;;;;10.98;8.25;;;;;;;14.59;71.98;100641.28;3559604;40;20056;-52
2021/05/19 06:57:29;;;;;;;11.65;8.30;;;;;;;14.69;70.17;100643.06;3559225;40;20087;-56
2021/05/19 06:59:56;;;;;;;9.60;8.50;;;;;;;14.92;70.68;100633.78;3560896;40;20049;-51
2021/05/19 07:02:23;;;;;;;10.43;8.38;;;;;;;14.98;69.43;100644.16;3557510;40;20085;-53
2021/05/19 07:04:51;;;;;;;12.73;8.20;;;;;;;15.46;69.04;100645.31;3561724;40;20083;-53
2021/05/19 07:07:18;;;;;;;11.23;8.55;;;;;;;15.57;65.48;100644.47;3555911;40;20443;-49
2021/05/19 07:09:45;;;;;;;10.73;8.60;;;;;;;15.81;66.15;100638.59;3561589;40;20060;-53
2021/05/19 07:12:12;;;;;;;8.65;7.20;;;;;;;16.36;64.69;100647.34;3556246;40;20064;-50
2021/05/19 07:14:47;;;;;;;8.30;6.97;;;;;;;16.43;64.42;100638.72;3561492;40;20130;-52
2021/05/19 07:17:14;;;;;;;8.63;7.60;;;;;;;16.06;63.02;100652.44;3555820;40;21122;-51
2021/05/19 07:19:41;;;;;;;8.77;7.38;;;;;;;16.11;62.41;100645.56;3561347;40;20049;-51
2021/05/19 07:22:09;;;;;;;8.75;6.60;;;;;;;16.40;61.98;100649.06;3556095;40;20048;-48
2021/05/19 07:24:36;;;;;;;7.45;6.35;;;;;;;16.10;60.43;100644.72;3543730;40;20053;-53
2021/05/19 07:27:04;;;;;;;7.72;6.20;;;;;;;16.61;58.09;100652.53;3558573;40;20057;-55
2021/05/19 07:29:32;;;;;;;6.28;5.45;;;;;;;17.37;57.11;100651.59;3561750;40;20060;-51
2021/05/19 07:31:59;;;;;;;8.45;6.10;;;;;;;18.04;58.58;100656.53;3561306;40;20053;-50
2021/05/19 07:34:26;;;;;;;8.23;5.63;;;;;;;17.53;56.26;100656.72;3559714;40;20047;-52
2021/05/19 07:36:53;;;;;;;7.72;6.07;;;;;;;16.53;57.43;100648.22;3562451;40;20080;-52
2021/05/19 07:39:21;;;;;;;6.88;5.53;;;;;;;16.64;57.88;100656.00;3557220;40;20759;-51
2021/05/19 07:41:57;;;;;;;6.43;5.72;;;;;;;16.52;57.55;100654.25;3561932;40;20623;-50
2021/05/19 07:44:24;;;;;;;5.90;5.30;;;;;;;16.47;59.94;100652.53;3559014;40;20066;-50
2021/05/19 07:46:52;;;;;;;7.43;4.30;;;;;;;16.39;57.13;100660.25;3562813;40;20579;-53
2021/05/19 07:49:18;;;;;;;4.90;4.43;;;;;;;16.23;56.85;100661.97;3557037;40;20083;-54
2021/05/19 07:51:44;;;;;;;4.50;4.10;;;;;;;15.88;58.84;100656.69;3562915;40;20057;-57
2021/05/19 07:54:14;;;;;;;4.90;4.13;;;;;;;16.23;58.28;100655.94;3558164;40;20052;-56
2021/05/19 07:56:49;;;;;;;4.72;4.32;;;;;;;17.02;56.22;100656.00;3546827;40;20045;-56
2021/05/19 07:59:17;;;;;;;3.28;3.03;;;;;;;16.88;56.00;100655.16;3557408;40;20098;-55
2021/05/19 08:02:01;;;;;;;3.08;2.80;;;;;;;17.52;52.99;100662.78;3563163;40;20066;-54
2021/05/19 08:04:28;;;;;;;4.22;3.28;;;;;;;17.25;50.72;100661.13;3560006;40;20054;-49
2021/05/19 08:06:54;;;;;;;3.60;3.30;;;;;;;16.94;51.10;100664.63;3563090;40;20045;-51
2021/05/19 08:09:19;;;;;;;3.65;2.70;;;;;;;16.91;51.72;100659.44;3556756;40;20054;-51
2021/05/19 08:11:45;;;;;;;4.07;2.65;;;;;;;16.93;54.58;100658.59;3562719;40;20056;-55
2021/05/19 08:14:11;;;;;;;3.75;2.72;;;;;;;17.27;51.22;100666.28;3557365;40;20593;-49
2021/05/19 08:16:37;;;;;;;2.08;1.85;;;;;;;17.25;51.39;100657.69;3562565;40;20060;-48
2021/05/19 08:19:03;;;;;;;2.85;2.50;;;;;;;17.25;48.63;100668.91;3560132;40;20053;-56
2021/05/19 08:21:30;;;;;;;4.63;3.03;;;;;;;16.71;50.75;100664.59;3561045;40;20108;-55
2021/05/19 08:23:57;;;;;;;4.28;2.75;;;;;;;17.04;49.82;100671.50;3561259;40;20053;-50
2021/05/19 08:26:24;;;;;;;3.17;2.30;;;;;;;16.80;52.65;100674.97;3558576;40;20059;-47
2021/05/19 08:28:52;;;;;;;3.22;2.97;;;;;;;17.05;52.72;100668.94;3562643;40;20060;-54
2021/05/19 08:31:20;;;;;;;3.00;2.70;;;;;;;16.84;53.73;100676.69;3557094;40;20126;-52
2021/05/19 08:33:57;;;;;;;3.10;2.70;;;;;;;16.76;53.36;100673.25;3561707;40;20138;-54
2021/05/19 08:36:25;;;;;;;2.88;2.55;;;;;;;16.70;52.15;100671.50;3559128;40;20051;-53
2021/05/19 08:38:54;;;;;;;2.58;2.05;;;;;;;17.41;51.39;100672.28;3562591;40;20137;-49
2021/05/19 08:41:21;;;;;;;2.13;1.67;;;;;;;17.78;49.07;100680.84;3557370;40;20483;-52
2021/05/19 08:43:48;;;;;;;2.53;1.70;;;;;;;18.17;46.22;100671.16;3562534;40;20138;-47
2021/05/19 08:46:16;;;;;;;1.70;1.60;;;;;;;18.03;45.27;100670.38;3557148;40;20066;-50
2021/05/19 08:48:51;;;;;;;1.92;1.60;;;;;;;18.25;43.26;100673.69;3551208;40;20067;-48
2021/05/19 08:51:19;;;;;;;2.67;1.70;;;;;;;18.23;44.14;100675.44;3560984;40;20068;-49
2021/05/19 08:53:46;;;;;;;2.13;1.70;;;;;;;17.90;44.21;100681.66;3562584;40;20431;-54
2021/05/19 08:56:13;;;;;;;1.92;1.75;;;;;;;18.08;44.04;100672.94;3538841;40;20056;-49
2021/05/19 08:58:40;;;;;;;1.90;1.10;;;;;;;18.12;43.24;100665.16;3562766;40;20085;-54
2021/05/19 09:01:07;;;;;;;1.85;1.33;;;;;;;17.87;44.08;100664.41;3557970;40;20158;-49
2021/05/19 09:03:36;;;;;;;1.77;1.65;;;;;;;17.83;43.47;100672.19;3562638;40;20455;-50
2021/05/19 09:06:08;;;;;;;1.98;1.60;;;;;;;17.96;44.87;100663.50;3557701;40;20100;-52
2021/05/19 09:08:37;;;;;;;2.30;1.42;;;;;;;17.95;44.81;100664.38;3544683;40;20097;-47
2021/05/19 09:11:06;;;;;;;2.20;1.35;;;;;;;18.05;45.48;100664.31;3559181;40;20318;-48
2021/05/19 09:13:42;;;;;;;3.40;1.80;;;;;;;18.21;44.87;100662.50;3546602;40;20398;-51
2021/05/19 09:16:10;;;;;;;2.30;2.10;;;;;;;18.40;44.12;100668.44;3557098;40;20414;-49
2021/05/19 09:18:49;;;;;;;3.08;2.10;;;;;;;18.29;45.33;100670.22;3545526;40;20056;-54
2021/05/19 09:21:39;;;;;;;3.40;2.42;;;;;;;19.02;44.37;100664.47;3557420;40;20054;-51
2021/05/19 09:24:11;;;;;;;2.47;2.05;;;;;;;19.10;43.15;100660.97;3558432;40;20049;-49
2021/05/19 09:26:56;;;;;;;2.25;2.00;;;;;;;18.59;45.03;100653.59;3546483;40;20355;-51
2021/05/19 09:29:26;;;;;;;3.38;2.28;;;;;;;18.47;46.89;100662.31;3558790;40;20102;-50
2021/05/19 09:31:58;;;;;;;2.80;2.38;;;;;;;18.61;46.16;100666.53;3562640;40;20057;-55
2021/05/19 09:34:30;;;;;;;2.53;2.20;;;;;;;18.94;44.72;100666.28;3559095;40;20405;-53
2021/05/19 09:37:25;;;;;;;4.30;1.90;;;;;;;19.42;44.46;100660.63;3561466;40;20092;-52
2021/05/19 09:39:57;;;;;;;2.20;1.93;;;;;;;19.24;46.20;100662.53;3551333;40;20052;-54
2021/05/19 09:42:41;;;;;;;4.43;2.10;;;;;;;20.42;41.22;100660.19;3559337;40;20042;-52
2021/05/19 09:45:26;;;;;;;2.80;1.90;;;;;;;20.42;42.29;100658.44;3557978;40;20107;-49
2021/05/19 09:47:58;;;;;;;3.90;2.28;;;;;;;19.12;44.17;100662.66;3545670;40;20060;-48
2021/05/19 09:50:43;;;;;;;3.78;2.25;;;;;;;18.48;46.21;100668.34;3558575;40;20476;-52
2021/05/19 09:53:15;;;;;;;2.25;2.05;;;;;;;18.37;44.81;100662.41;3556729;40;20524;-52
2021/05/19 09:56:02;;;;;;;2.75;2.30;;;;;;;19.02;43.85;100661.03;3531739;40;20100;-50
2021/05/19 09:58:40;;;;;;;2.63;2.17;;;;;;;19.22;43.59;100656.47;3527535;40;20053;-47
2021/05/19 10:01:08;;;;;;;1.92;1.80;;;;;;;20.70;42.13;100665.84;3524034;40;20076;-52
2021/05/19 10:03:37;;;;;;;2.88;1.48;;;;;;;21.77;36.52;100669.97;3525043;40;20366;-50
2021/05/19 10:08:43;;;;;;;2.08;1.80;;;;;;;25.73;29.69;100690.91;3524457;40;20148;-48
2021/05/19 10:11:10;;;;;;;2.33;2.13;;;;;;;27.16;27.91;100687.84;3524808;40;20048;-50
2021/05/19 10:13:38;;;;;;;2.25;2.00;;;;;;;26.75;28.20;100681.66;3524587;40;20049;-47
2021/05/19 10:16:09;;;;;;;10.02;2.72;;;;;;;23.82;30.50;100672.72;3524053;40;20091;-55
2021/05/19 10:18:46;;;;;;;3.28;1.67;;;;;;;22.38;33.60;100678.22;3547375;40;20110;-58
2021/05/19 10:21:16;;;;;;;1.75;1.60;;;;;;;25.58;29.41;100674.81;3558172;40;20053;-51
2021/05/19 10:24:04;;;;;;;1.83;1.58;;;;;;;26.88;27.03;100672.34;3562718;40;20041;-52
2021/05/19 10:26:52;;;;;;;1.30;1.20;;;;;;;27.26;24.09;100685.66;3546241;40;20049;-52
2021/05/19 10:29:59;;;;;;;1.48;1.10;;;;;;;28.63;22.61;100680.22;3556384;40;20059;-50
2021/05/19 10:32:36;;;;;;;1.05;1.00;;;;;;;30.61;22.06;100674.00;3561364;40;20053;-51
2021/05/19 10:35:08;;;;;;;1.55;1.13;;;;;;;29.23;23.71;100678.06;3559196;40;20061;-49
2021/05/19 10:37:45;;;;;;;2.10;1.02;;;;;;;28.60;24.24;100678.56;3544743;40;20064;-48
2021/05/19 10:40:18;;;;;;;1.27;1.10;;;;;;;29.74;23.50;100683.31;3553365;40;20070;-50
2021/05/19 10:42:54;;;;;;;1.92;1.13;;;;;;;30.41;21.25;100687.50;3530880;40;20104;-55
2021/05/19 10:45:23;;;;;;;1.77;1.25;;;;;;;30.00;21.39;100680.09;3532889;40;21259;-52
2021/05/19 10:47:50;;;;;;;1.15;1.08;;;;;;;27.74;24.30;100675.69;3529665;40;20679;-50
2021/05/19 10:50:38;;;;;;;1.10;0.95;;;;;;;27.68;25.85;100674.97;3546773;40;20059;-56
2021/05/19 10:59:00;;;;;;;2.20;1.50;;;;;;;29.15;23.44;100673.16;3549229;40;20064;-52
2021/05/19 11:01:38;;;;;;;1.08;1.00;;;;;;;30.19;21.76;100674.66;3559593;40;20051;-52
2021/05/19 11:04:21;;;;;;;2.38;1.00;;;;;;;29.51;23.02;100668.69;3558347;40;20045;-49
2021/05/19 11:06:57;;;;;;;1.13;1.02;;;;;;;29.87;21.51;100677.28;3549438;40;20052;-54
2021/05/19 11:09:29;;;;;;;1.90;0.95;;;;;;;30.25;22.25;100676.94;3558827;40;20181;-53
2021/05/19 11:12:26;;;;;;;1.25;1.20;;;;;;;29.57;22.72;100669.22;3561882;40;20069;-55
2021/05/19 11:15:44;;;;;;;1.98;1.48;;;;;;;25.44;26.52;100663.13;3552673;40;20393;-52
2021/05/19 11:21:18;;;;;;;1.83;1.05;;;;;;;30.12;21.73;100666.19;3557055;40;20684;-48
2021/05/19 11:24:15;;;;;;;1.20;1.10;;;;;;;29.60;23.07;100676.97;3547993;40;20057;-53
2021/05/19 11:26:45;;;;;;;2.67;1.08;;;;;;;27.03;25.72;100673.47;3546937;40;20048;-54
2021/05/19 11:29:16;;;;;;;2.35;1.20;;;;;;;26.57;24.87;100661.41;3556643;40;20093;-51
2021/05/19 11:31:45;;;;;;;2.45;1.02;;;;;;;29.48;24.30;100676.75;3561926;40;20061;-56
2021/05/19 11:34:16;;;;;;;1.35;1.15;;;;;;;28.73;22.18;100662.16;3556649;40;20064;-49
2021/05/19 11:36:52;;;;;;;4.80;1.10;;;;;;;28.77;23.03;100661.06;3537851;40;20051;-47
2021/05/19 11:39:41;;;;;;;1.48;1.27;;;;;;;26.49;25.01;100667.00;3556397;40;20133;-54
2021/05/19 11:42:28;;;;;;;1.60;1.10;;;;;;;25.69;26.33;100668.31;3558320;40;20137;-51
2021/05/19 11:45:06;;;;;;;1.80;1.00;;;;;;;26.98;24.75;100667.56;3561734;40;20053;-50
2021/05/19 11:47:38;;;;;;;1.73;1.25;;;;;;;28.09;22.52;100674.03;3561293;40;20082;-50
2021/05/19 11:50:10;;;;;;;1.67;1.25;;;;;;;30.07;21.25;100673.53;3558030;40;20056;-54
2021/05/19 11:53:21;;;;;;;1.10;1.00;;;;;;;31.18;20.16;100671.50;3544658;40;20060;-53